createdAt,value
2023-01-23T00:00:30.838Z,11.05
2023-01-23T00:03:16.694Z,11.11
2023-01-23T00:06:06.740Z,11.12
2023-01-23T00:08:53.107Z,10.99
2023-01-23T00:11:39.099Z,11.14
2023-01-23T00:14:25.333Z,11.17
2023-01-23T00:17:11.256Z,11.14
2023-01-23T00:19:57.077Z,11.19
2023-01-23T00:22:42.865Z,11.28
2023-01-23T00:25:28.619Z,11.17
2023-01-23T00:28:14.518Z,11.17
2023-01-23T00:31:08.231Z,11.11
2023-01-23T00:33:56.603Z,11.29
2023-01-23T00:36:44.309Z,11.27
2023-01-23T00:39:30.744Z,11.32
2023-01-23T00:42:17.076Z,11.32
2023-01-23T00:45:03.424Z,11.13
2023-01-23T00:47:49.383Z,11.25
2023-01-23T00:50:35.400Z,11.26
2023-01-23T00:53:22.214Z,11.34
2023-01-23T00:56:08.359Z,11.36
2023-01-23T00:58:54.757Z,11.14
2023-01-23T01:01:41.131Z,11.38
2023-01-23T01:04:27.220Z,11.31
2023-01-23T01:07:13.557Z,11.09
2023-01-23T01:09:59.140Z,11.20
2023-01-23T01:12:44.997Z,11.25
2023-01-23T01:15:31.176Z,11.15
2023-01-23T01:18:18.473Z,11.13
2023-01-23T01:21:13.794Z,11.12
2023-01-23T01:24:00.606Z,11.35
2023-01-23T01:26:46.661Z,11.36
2023-01-23T01:29:33.548Z,11.39
2023-01-23T01:32:19.431Z,11.46
2023-01-23T01:35:08.319Z,11.41
2023-01-23T01:37:54.371Z,11.51
2023-01-23T01:40:40.177Z,11.47
2023-01-23T01:43:27.519Z,11.58
2023-01-23T01:46:13.348Z,11.53
2023-01-23T01:49:09.668Z,11.66
2023-01-23T01:51:57.842Z,11.69
2023-01-23T01:55:01.297Z,11.54
2023-01-23T01:57:49.009Z,11.57
2023-01-23T02:00:35.633Z,11.53
2023-01-23T02:03:21.495Z,11.42
2023-01-23T02:06:08.179Z,11.50
2023-01-23T02:09:02.036Z,11.51
2023-01-23T02:11:49.042Z,11.55
2023-01-23T02:14:37.883Z,11.56
2023-01-23T02:17:23.880Z,11.45
2023-01-23T02:20:25.368Z,11.41
2023-01-23T02:23:37.423Z,11.18
2023-01-23T02:26:29.950Z,11.32
2023-01-23T02:29:16.396Z,11.09
2023-01-23T02:32:10.412Z,11.19
2023-01-23T02:34:58.790Z,11.18
2023-01-23T02:37:47.077Z,10.99
2023-01-23T02:40:40.675Z,11.00
2023-01-23T02:43:36.036Z,11.13
2023-01-23T02:46:24.871Z,11.28
2023-01-23T02:49:10.932Z,11.25
2023-01-23T02:51:57.358Z,11.15
2023-01-23T02:54:43.229Z,11.21
2023-01-23T02:57:29.412Z,11.12
2023-01-23T03:00:20.554Z,11.07
2023-01-23T03:03:08.724Z,11.09
2023-01-23T03:05:55.639Z,11.14
2023-01-23T03:08:47.613Z,11.11
2023-01-23T03:11:34.484Z,11.20
2023-01-23T03:14:23.845Z,11.13
2023-01-23T03:17:11.134Z,11.19
2023-01-23T03:19:57.874Z,11.12
2023-01-23T03:22:44.860Z,11.13
2023-01-23T03:25:30.844Z,11.24
2023-01-23T03:28:35.173Z,11.19
2023-01-23T03:31:21.377Z,11.14
2023-01-23T03:34:08.059Z,11.21
2023-01-23T03:36:54.104Z,11.17
2023-01-23T03:39:58.509Z,11.05
2023-01-23T03:42:45.496Z,10.96
2023-01-23T03:45:34.603Z,10.87
2023-01-23T03:48:20.734Z,10.89
2023-01-23T03:51:07.702Z,10.81
2023-01-23T03:53:54.048Z,10.83
2023-01-23T03:56:41.732Z,10.83
2023-01-23T03:59:42.184Z,10.70
2023-01-23T04:02:29.361Z,10.74
2023-01-23T04:05:15.316Z,10.81
2023-01-23T04:08:01.578Z,10.98
2023-01-23T04:10:48.496Z,10.94
2023-01-23T04:13:36.781Z,11.10
2023-01-23T04:16:23.641Z,11.15
2023-01-23T04:19:10.041Z,11.19
2023-01-23T04:21:55.842Z,11.26
2023-01-23T04:24:42.336Z,11.27
2023-01-23T04:27:28.620Z,11.35
2023-01-23T04:30:15.501Z,11.40
2023-01-23T04:33:01.274Z,11.30
2023-01-23T04:36:06.825Z,11.38
2023-01-23T04:38:53.676Z,11.59
2023-01-23T04:41:44.520Z,11.41
2023-01-23T04:44:43.889Z,11.57
2023-01-23T04:47:52.442Z,11.61
2023-01-23T04:50:38.322Z,11.63
2023-01-23T04:53:24.021Z,11.47
2023-01-23T04:56:16.733Z,11.53
2023-01-23T04:59:02.824Z,11.65
2023-01-23T05:01:49.118Z,11.73
2023-01-23T05:04:36.253Z,11.77
2023-01-23T05:07:22.929Z,11.70
2023-01-23T05:10:23.810Z,11.82
2023-01-23T05:13:10.469Z,11.74
2023-01-23T05:15:57.687Z,11.83
2023-01-23T05:18:44.461Z,11.87
2023-01-23T05:21:30.539Z,11.91
2023-01-23T05:24:16.921Z,11.92
2023-01-23T05:27:04.214Z,11.72
2023-01-23T05:29:52.891Z,11.70
2023-01-23T05:32:42.806Z,11.91
2023-01-23T05:35:34.194Z,11.84
2023-01-23T05:38:20.679Z,11.76
2023-01-23T05:41:06.503Z,11.89
2023-01-23T05:44:18.621Z,11.72
2023-01-23T05:47:10.571Z,11.85
2023-01-23T05:49:57.268Z,11.90
2023-01-23T05:52:48.509Z,11.98
2023-01-23T05:55:35.022Z,11.90
2023-01-23T05:58:21.976Z,11.79
2023-01-23T06:01:40.189Z,11.83
2023-01-23T06:04:54.260Z,11.82
2023-01-23T06:07:48.016Z,11.85
2023-01-23T06:10:33.864Z,11.89
2023-01-23T06:13:20.212Z,11.88
2023-01-23T06:16:08.513Z,11.89
2023-01-23T06:18:57.111Z,11.86
2023-01-23T06:21:44.920Z,11.88
2023-01-23T06:24:32.229Z,11.77
2023-01-23T06:27:19.184Z,11.95
2023-01-23T06:30:05.867Z,11.87
2023-01-23T06:32:56.496Z,11.88
2023-01-23T06:35:57.432Z,11.84
2023-01-23T06:38:44.175Z,12.00
2023-01-23T06:41:31.791Z,11.86
2023-01-23T06:44:21.533Z,11.98
2023-01-23T06:47:07.424Z,11.90
2023-01-23T06:49:53.214Z,11.83
2023-01-23T06:52:38.885Z,11.97
2023-01-23T06:55:24.798Z,11.95
2023-01-23T06:58:11.187Z,11.94
2023-01-23T07:00:57.629Z,11.96
2023-01-23T07:04:09.244Z,12.03
2023-01-23T07:06:56.716Z,12.03
2023-01-23T07:09:43.870Z,12.01
2023-01-23T07:12:35.876Z,11.89
2023-01-23T07:15:21.800Z,12.03
2023-01-23T07:18:07.788Z,11.84
2023-01-23T07:20:54.398Z,12.10
2023-01-23T07:23:40.284Z,11.97
2023-01-23T07:26:26.858Z,12.04
2023-01-23T07:29:14.381Z,12.10
2023-01-23T07:32:01.191Z,12.18
2023-01-23T07:34:47.249Z,12.18
2023-01-23T07:37:33.450Z,12.22
2023-01-23T07:40:19.707Z,12.05
2023-01-23T07:43:05.967Z,12.25
2023-01-23T07:45:51.744Z,12.22
2023-01-23T07:48:37.792Z,12.14
2023-01-23T07:51:23.911Z,12.08
2023-01-23T07:54:10.059Z,12.25
2023-01-23T07:56:56.261Z,12.17
2023-01-23T07:59:42.349Z,12.19
2023-01-23T08:02:28.210Z,12.23
2023-01-23T08:05:14.030Z,12.25
2023-01-23T08:08:12.472Z,12.14
2023-01-23T08:10:59.351Z,12.24
2023-01-23T08:13:49.621Z,12.27
2023-01-23T08:16:35.670Z,12.28
2023-01-23T08:19:21.510Z,12.22
2023-01-23T08:22:07.671Z,12.24
2023-01-23T08:24:53.543Z,12.24
2023-01-23T08:27:39.640Z,12.24
2023-01-23T08:30:25.543Z,12.35
2023-01-23T08:33:11.766Z,12.26
2023-01-23T08:35:58.868Z,12.10
2023-01-23T08:38:44.845Z,12.17
2023-01-23T08:41:30.926Z,12.04
2023-01-23T08:44:17.004Z,12.11
2023-01-23T08:47:03.343Z,12.17
2023-01-23T08:49:49.485Z,12.22
2023-01-23T08:52:36.019Z,12.24
2023-01-23T08:55:21.704Z,12.07
2023-01-23T08:58:09.043Z,12.28
2023-01-23T09:00:55.177Z,12.32
2023-01-23T09:03:40.944Z,12.41
2023-01-23T09:06:26.764Z,12.16
2023-01-23T09:09:12.604Z,12.34
2023-01-23T09:11:58.399Z,12.40
2023-01-23T09:14:44.239Z,12.22
2023-01-23T09:17:29.995Z,12.30
2023-01-23T09:20:16.063Z,12.38
2023-01-23T09:23:02.244Z,12.37
2023-01-23T09:25:48.013Z,12.38
2023-01-23T09:28:35.625Z,12.46
2023-01-23T09:31:21.490Z,12.35
2023-01-23T09:34:08.035Z,12.43
2023-01-23T09:36:54.038Z,12.42
2023-01-23T09:39:39.843Z,12.48
2023-01-23T09:42:31.737Z,12.36
2023-01-23T09:45:24.859Z,12.38
2023-01-23T09:48:16.554Z,12.34
2023-01-23T09:51:28.233Z,12.43
2023-01-23T09:54:47.888Z,12.38
2023-01-23T09:57:37.169Z,12.35
2023-01-23T10:00:27.665Z,12.44
2023-01-23T10:03:15.529Z,12.47
2023-01-23T10:06:01.327Z,12.45
2023-01-23T10:08:54.788Z,12.43
2023-01-23T10:11:53.539Z,12.38
2023-01-23T10:14:46.955Z,12.39
2023-01-23T10:17:44.749Z,12.35
2023-01-23T10:21:07.605Z,12.44
2023-01-23T10:23:54.245Z,12.43
2023-01-23T10:26:43.278Z,12.43
2023-01-23T10:29:36.778Z,12.32
2023-01-23T10:32:31.694Z,12.39
2023-01-23T10:35:23.055Z,12.42
2023-01-23T10:38:18.580Z,12.45
2023-01-23T10:41:21.738Z,12.36
2023-01-23T10:44:17.216Z,12.35
2023-01-23T10:47:04.691Z,12.26
2023-01-23T10:49:50.926Z,12.30
2023-01-23T10:52:47.261Z,12.42
2023-01-23T10:55:33.507Z,12.39
2023-01-23T10:58:45.578Z,12.29
2023-01-23T11:01:37.449Z,12.13
2023-01-23T11:04:26.921Z,12.50
2023-01-23T11:07:15.416Z,12.54
2023-01-23T11:10:16.768Z,12.40
2023-01-23T11:13:03.682Z,12.50
2023-01-23T11:15:49.639Z,12.39
2023-01-23T11:18:42.547Z,12.40
2023-01-23T11:21:52.366Z,12.33
2023-01-23T11:24:41.113Z,12.60
2023-01-23T11:27:30.411Z,12.59
2023-01-23T11:30:25.580Z,12.69
2023-01-23T11:33:15.168Z,12.70
2023-01-23T11:36:07.612Z,12.65
2023-01-23T11:39:16.943Z,12.65
2023-01-23T11:42:03.066Z,12.72
2023-01-23T11:44:51.223Z,12.73
2023-01-23T11:48:00.913Z,12.49
2023-01-23T11:50:55.186Z,12.70
2023-01-23T11:53:47.820Z,12.65
2023-01-23T11:56:49.335Z,12.51
2023-01-23T11:59:57.721Z,12.44
2023-01-23T12:03:19.696Z,12.34
2023-01-23T12:06:20.104Z,12.55
2023-01-23T12:09:14.653Z,12.59
2023-01-23T12:12:23.515Z,12.36
2023-01-23T12:15:23.190Z,12.56
2023-01-23T12:18:27.840Z,12.60
2023-01-23T12:21:26.065Z,12.37
2023-01-23T12:24:15.004Z,12.51
2023-01-23T12:27:14.031Z,12.55
2023-01-23T12:30:21.612Z,12.48
2023-01-23T12:33:21.262Z,12.33
2023-01-23T12:36:19.752Z,12.42
2023-01-23T12:40:03.740Z,12.35
2023-01-23T12:43:09.600Z,12.22
2023-01-23T12:46:05.826Z,12.31
2023-01-23T12:48:55.666Z,12.38
2023-01-23T12:51:43.777Z,12.33
2023-01-23T12:54:41.342Z,12.33
2023-01-23T13:01:08.747Z,12.27
2023-01-23T13:04:06.047Z,12.11
2023-01-23T13:07:14.102Z,12.20
2023-01-23T13:10:56.210Z,12.23
2023-01-23T13:13:42.346Z,12.24
2023-01-23T13:16:30.359Z,12.22
2023-01-23T13:19:43.656Z,12.16
2023-01-23T13:22:32.675Z,12.11
2023-01-23T13:25:19.730Z,12.24
2023-01-23T13:28:44.494Z,12.17
2023-01-23T13:31:40.388Z,12.23
2023-01-23T13:34:29.753Z,12.23
2023-01-23T13:37:30.787Z,12.17
2023-01-23T13:40:22.213Z,12.13
2023-01-23T13:43:41.914Z,12.16
2023-01-23T14:21:55.371Z,11.92
2023-01-23T14:24:44.724Z,12.01
2023-01-23T14:27:51.295Z,11.95
2023-01-23T14:30:38.333Z,11.97
2023-01-23T14:33:24.533Z,11.95
2023-01-23T14:36:16.033Z,11.91
2023-01-23T14:39:02.652Z,11.88
2023-01-23T14:41:49.623Z,11.86
2023-01-23T14:44:35.551Z,11.87
2023-01-23T14:47:56.178Z,11.66
2023-01-23T14:50:45.641Z,11.82
2023-01-23T14:53:32.080Z,11.76
2023-01-23T14:56:18.424Z,11.74
2023-01-23T14:59:07.507Z,11.69
2023-01-23T15:01:58.223Z,11.67
2023-01-23T15:04:44.382Z,11.55
2023-01-23T15:07:30.194Z,11.66
2023-01-23T15:10:18.039Z,11.62
2023-01-23T15:13:10.316Z,11.53
2023-01-23T15:16:00.226Z,11.54
2023-01-23T15:18:53.094Z,11.51
2023-01-23T15:21:41.224Z,11.40
2023-01-23T15:24:28.005Z,11.45
2023-01-23T15:27:26.085Z,11.32
2023-01-23T15:30:33.801Z,11.36
2023-01-23T15:33:40.349Z,11.24
2023-01-23T15:36:28.911Z,11.26
2023-01-23T15:39:19.149Z,11.26
2023-01-23T15:42:14.411Z,11.29
2023-01-23T15:45:01.680Z,11.31
2023-01-23T15:47:48.667Z,11.20
2023-01-23T15:50:34.596Z,11.17
2023-01-23T15:53:20.569Z,11.17
2023-01-23T15:56:12.487Z,11.08
2023-01-23T15:59:00.709Z,11.15
2023-01-23T16:01:47.065Z,11.12
2023-01-23T16:04:33.327Z,11.06
2023-01-23T16:07:43.545Z,10.96
2023-01-23T16:10:32.876Z,11.00
2023-01-23T16:13:18.768Z,10.96
2023-01-23T16:16:19.192Z,10.84
2023-01-23T16:19:05.161Z,10.82
2023-01-23T16:22:03.863Z,10.89
2023-01-23T16:24:50.935Z,10.80
2023-01-23T16:27:36.684Z,10.70
2023-01-23T16:30:23.860Z,10.84
2023-01-23T16:33:09.926Z,10.77
2023-01-23T16:35:56.079Z,10.83
2023-01-23T16:38:45.522Z,10.80
2023-01-23T16:41:31.857Z,10.79
2023-01-23T16:44:19.009Z,10.78
2023-01-23T16:47:05.260Z,10.65
2023-01-23T16:49:52.937Z,10.77
2023-01-23T16:52:39.966Z,10.76
2023-01-23T16:55:30.438Z,10.74
2023-01-23T16:58:19.643Z,10.74
2023-01-23T17:01:14.691Z,10.66
2023-01-23T17:04:03.075Z,10.66
2023-01-23T17:06:49.476Z,10.65
2023-01-23T17:09:35.223Z,10.68
2023-01-23T17:12:24.314Z,10.63
2023-01-23T17:15:29.933Z,10.61
2023-01-23T17:18:25.127Z,10.63
2023-01-23T17:21:17.562Z,10.60
2023-01-23T17:24:03.960Z,10.58
2023-01-23T17:26:59.576Z,10.53
2023-01-23T17:29:45.758Z,10.55
2023-01-23T17:32:35.431Z,10.59
2023-01-23T17:35:29.225Z,10.41
2023-01-23T17:38:23.539Z,10.45
2023-01-23T17:41:14.327Z,10.46
2023-01-23T17:44:00.584Z,10.54
2023-01-23T17:46:47.280Z,10.54
2023-01-23T17:49:33.593Z,10.46
2023-01-23T17:52:21.840Z,10.55
2023-01-23T17:55:14.074Z,10.50
2023-01-23T17:58:00.939Z,10.50
2023-01-23T18:00:49.436Z,10.46
2023-01-23T18:03:35.685Z,10.45
2023-01-23T18:06:21.831Z,10.42
2023-01-23T18:09:07.937Z,10.37
2023-01-23T18:11:54.632Z,10.38
2023-01-23T18:14:47.602Z,10.32
2023-01-23T18:17:37.859Z,10.25
2023-01-23T18:20:24.107Z,10.31
2023-01-23T18:23:14.462Z,10.29
2023-01-23T18:26:22.276Z,10.27
2023-01-23T18:29:33.459Z,10.24
2023-01-23T18:32:37.882Z,10.29
2023-01-23T18:35:53.901Z,10.25
2023-01-23T18:39:01.313Z,10.13
2023-01-23T18:42:11.694Z,10.11
2023-01-23T18:45:11.672Z,10.25
2023-01-23T18:47:57.981Z,10.26
2023-01-23T18:51:08.483Z,10.27
2023-01-23T18:54:03.966Z,10.14
2023-01-23T18:57:14.686Z,10.25
2023-01-23T19:00:20.232Z,10.24
2023-01-23T19:03:17.489Z,10.23
2023-01-23T19:06:12.943Z,10.23
2023-01-23T19:08:59.396Z,10.29
2023-01-23T19:11:50.146Z,10.29
2023-01-23T19:15:13.804Z,10.17
2023-01-23T19:18:21.968Z,10.22
2023-01-23T19:21:16.935Z,10.17
2023-01-23T19:24:06.942Z,10.28
2023-01-23T19:26:54.408Z,10.21
2023-01-23T19:29:40.735Z,10.22
2023-01-23T19:32:27.213Z,10.23
2023-01-23T19:35:26.882Z,10.21
2023-01-23T19:38:12.762Z,10.23
2023-01-23T19:40:59.001Z,10.21
2023-01-23T19:43:45.686Z,10.22
2023-01-23T19:46:35.343Z,10.23
2023-01-23T19:49:21.478Z,10.09
2023-01-23T19:52:10.187Z,10.15
2023-01-23T19:54:56.089Z,10.14
2023-01-23T19:57:42.074Z,10.16
2023-01-23T20:00:31.294Z,10.19
2023-01-23T20:03:17.351Z,10.14
2023-01-23T20:06:03.350Z,10.16
2023-01-23T20:08:49.183Z,10.23
2023-01-23T20:11:37.818Z,10.09
2023-01-23T20:14:25.159Z,10.13
2023-01-23T20:17:11.320Z,10.05
2023-01-23T20:19:57.226Z,10.11
2023-01-23T20:22:43.949Z,10.04
2023-01-23T20:25:30.199Z,10.08
2023-01-23T20:28:16.541Z,10.08
2023-01-23T20:31:07.530Z,10.05
2023-01-23T20:33:54.277Z,10.07
2023-01-23T20:36:40.510Z,10.04
2023-01-23T20:39:26.263Z,10.06
2023-01-23T20:42:12.286Z,10.03
2023-01-23T20:44:58.130Z,10.05
2023-01-23T20:47:44.126Z,10.07
2023-01-23T20:50:29.985Z,10.06
2023-01-23T20:53:31.480Z,10.05
2023-01-23T20:56:19.920Z,10.01
2023-01-23T20:59:24.029Z,10.00
2023-01-23T21:02:23.666Z,10.05
2023-01-23T21:05:09.861Z,10.04
2023-01-23T21:07:56.466Z,10.05
2023-01-23T21:10:45.607Z,10.06
2023-01-23T21:13:31.622Z,10.08
2023-01-23T21:16:20.306Z,10.08
2023-01-23T21:19:07.127Z,10.11
2023-01-23T21:21:53.246Z,10.05
2023-01-23T21:24:39.615Z,10.11
2023-01-23T21:27:26.155Z,10.04
2023-01-23T21:30:12.256Z,10.09
2023-01-23T21:32:58.852Z,10.11
2023-01-23T21:35:52.751Z,10.01
2023-01-23T21:38:39.365Z,10.02
2023-01-23T21:41:25.213Z,10.03
2023-01-23T21:44:11.556Z,9.98
2023-01-23T21:46:57.436Z,9.99
2023-01-23T21:49:43.594Z,10.00
2023-01-23T21:52:30.446Z,10.00
2023-01-23T21:55:16.787Z,9.95
2023-01-23T21:58:02.667Z,9.88
2023-01-23T22:01:07.421Z,10.02
2023-01-23T22:03:53.776Z,10.03
2023-01-23T22:06:42.508Z,9.95
2023-01-23T22:09:28.420Z,9.98
2023-01-23T22:12:14.261Z,10.01
2023-01-23T22:14:59.998Z,9.91
2023-01-23T22:17:46.101Z,9.88
2023-01-23T22:20:32.295Z,10.02
2023-01-23T22:23:17.971Z,9.98
2023-01-23T22:26:07.959Z,10.03
2023-01-23T22:28:54.110Z,10.05
2023-01-23T22:31:40.003Z,10.04
2023-01-23T22:34:26.139Z,10.04
2023-01-23T22:37:12.036Z,9.97
2023-01-23T22:39:57.984Z,10.12
2023-01-23T22:42:44.129Z,10.07
2023-01-23T22:45:29.822Z,9.90
2023-01-23T22:48:15.718Z,9.84
2023-01-23T22:51:03.418Z,9.80
2023-01-23T22:53:49.617Z,9.83
2023-01-23T22:56:35.825Z,9.80
2023-01-23T22:59:22.013Z,9.78
2023-01-23T23:02:08.133Z,9.75
2023-01-23T23:04:54.220Z,9.68
2023-01-23T23:07:40.677Z,9.72
2023-01-23T23:10:26.614Z,9.71
2023-01-23T23:13:12.540Z,9.66
2023-01-23T23:16:01.907Z,9.60
2023-01-23T23:18:49.822Z,9.52
2023-01-23T23:21:37.101Z,9.54
2023-01-23T23:24:23.367Z,9.48
2023-01-23T23:27:09.328Z,9.52
2023-01-23T23:29:55.315Z,9.52
2023-01-23T23:32:41.155Z,9.49
2023-01-23T23:35:26.984Z,9.39
2023-01-23T23:38:12.749Z,9.35
2023-01-23T23:41:01.433Z,9.45
2023-01-23T23:43:47.562Z,9.36
2023-01-23T23:46:33.526Z,9.40
2023-01-23T23:49:19.318Z,9.28
2023-01-23T23:52:05.286Z,9.23
2023-01-23T23:54:51.166Z,9.33
2023-01-23T23:57:36.844Z,9.29
